createdAt,value
2022-10-21T00:00:25.150Z,5.66
2022-10-21T00:03:17.016Z,5.65
2022-10-21T00:05:49.481Z,5.66
2022-10-21T00:08:22.188Z,5.63
2022-10-21T00:10:57.282Z,5.56
2022-10-21T00:13:31.543Z,5.52
2022-10-21T00:16:06.155Z,5.47
2022-10-21T00:18:39.810Z,5.45
2022-10-21T00:21:16.055Z,5.49
2022-10-21T00:23:48.419Z,5.53
2022-10-21T00:26:21.130Z,5.53
2022-10-21T00:28:58.080Z,5.54
2022-10-21T00:31:30.614Z,5.53
2022-10-21T00:34:02.562Z,5.54
2022-10-21T00:36:34.458Z,5.55
2022-10-21T00:39:06.554Z,5.55
2022-10-21T00:41:38.531Z,5.51
2022-10-21T00:44:13.005Z,5.50
2022-10-21T00:46:49.926Z,5.45
2022-10-21T00:49:26.237Z,5.44
2022-10-21T00:52:01.598Z,5.43
2022-10-21T00:54:34.379Z,5.41
2022-10-21T00:57:07.125Z,5.47
2022-10-21T00:59:43.242Z,5.49
2022-10-21T01:02:15.428Z,5.52
2022-10-21T01:04:48.900Z,5.53
2022-10-21T01:07:21.901Z,5.51
2022-10-21T01:09:53.980Z,5.49
2022-10-21T01:12:34.842Z,5.52
2022-10-21T01:15:17.521Z,5.53
2022-10-21T01:17:56.777Z,5.51
2022-10-21T01:20:51.647Z,5.50
2022-10-21T01:24:01.677Z,5.47
2022-10-21T01:27:13.253Z,5.47
2022-10-21T01:30:20.602Z,5.46
2022-10-21T01:33:32.505Z,5.43
2022-10-21T01:36:16.723Z,5.44
2022-10-21T01:39:00.025Z,5.51
2022-10-21T01:41:37.372Z,5.51
2022-10-21T01:44:18.080Z,5.51
2022-10-21T01:46:54.861Z,5.52
2022-10-21T01:49:31.538Z,5.49
2022-10-21T01:52:05.463Z,5.47
2022-10-21T01:54:41.051Z,5.48
2022-10-21T01:57:16.658Z,5.46
2022-10-21T01:59:50.926Z,5.40
2022-10-21T02:02:23.946Z,5.35
2022-10-21T02:04:57.828Z,5.30
2022-10-21T02:07:29.909Z,5.28
2022-10-21T02:10:01.959Z,5.27
2022-10-21T02:12:35.256Z,5.28
2022-10-21T02:15:12.641Z,5.34
2022-10-21T02:17:50.909Z,5.36
2022-10-21T02:20:25.742Z,5.40
2022-10-21T02:22:58.095Z,5.39
2022-10-21T02:25:36.003Z,5.36
2022-10-21T02:28:08.635Z,5.34
2022-10-21T02:30:46.207Z,5.30
2022-10-21T02:33:24.135Z,5.27
2022-10-21T02:36:05.595Z,5.24
2022-10-21T02:38:44.126Z,5.18
2022-10-21T02:41:18.967Z,5.16
2022-10-21T02:43:55.546Z,5.13
2022-10-21T02:46:36.001Z,5.09
2022-10-21T02:49:08.483Z,5.13
2022-10-21T02:51:41.305Z,5.15
2022-10-21T02:54:13.270Z,5.15
2022-10-21T02:56:45.328Z,5.10
2022-10-21T02:59:17.313Z,5.04
2022-10-21T03:01:49.230Z,5.02
2022-10-21T03:04:21.339Z,5.01
2022-10-21T03:06:53.275Z,5.01
2022-10-21T03:09:25.543Z,4.99
2022-10-21T03:11:57.518Z,4.95
2022-10-21T03:14:29.448Z,4.92
2022-10-21T03:17:01.382Z,4.91
2022-10-21T03:19:33.310Z,4.97
2022-10-21T03:22:05.283Z,4.97
2022-10-21T03:24:37.202Z,4.99
2022-10-21T03:27:09.251Z,5.00
2022-10-21T03:29:41.211Z,4.98
2022-10-21T03:32:13.173Z,4.96
2022-10-21T03:34:45.370Z,4.94
2022-10-21T03:37:17.666Z,4.92
2022-10-21T03:39:49.673Z,4.90
2022-10-21T03:42:21.629Z,4.88
2022-10-21T03:44:53.533Z,4.86
2022-10-21T03:47:25.572Z,4.81
2022-10-21T03:49:58.613Z,4.78
2022-10-21T03:52:30.726Z,4.83
2022-10-21T03:55:02.652Z,4.84
2022-10-21T03:57:34.683Z,4.84
2022-10-21T04:00:08.670Z,4.85
2022-10-21T04:02:49.606Z,4.86
2022-10-21T04:05:21.679Z,4.86
2022-10-21T04:07:53.687Z,4.86
2022-10-21T04:10:25.694Z,4.81
2022-10-21T04:12:57.783Z,4.80
2022-10-21T04:15:29.717Z,4.79
2022-10-21T04:18:02.152Z,4.75
2022-10-21T04:20:34.181Z,4.73
2022-10-21T04:23:06.389Z,4.73
2022-10-21T04:25:38.364Z,4.73
2022-10-21T04:28:10.625Z,4.80
2022-10-21T04:30:42.749Z,4.81
2022-10-21T04:33:14.746Z,4.82
2022-10-21T04:35:46.805Z,4.80
2022-10-21T04:38:18.906Z,4.77
2022-10-21T04:40:56.054Z,4.77
2022-10-21T04:43:28.655Z,4.76
2022-10-21T04:46:00.645Z,4.76
2022-10-21T04:48:32.766Z,4.73
2022-10-21T04:51:04.845Z,4.70
2022-10-21T04:53:36.830Z,4.69
2022-10-21T04:56:10.751Z,4.68
2022-10-21T04:58:42.859Z,4.71
2022-10-21T05:01:14.851Z,4.77
2022-10-21T05:03:46.966Z,4.77
2022-10-21T05:06:18.900Z,4.82
2022-10-21T05:08:51.071Z,4.87
2022-10-21T05:11:23.100Z,4.84
2022-10-21T05:13:55.134Z,4.84
2022-10-21T05:16:27.121Z,4.84
2022-10-21T05:18:59.156Z,4.83
2022-10-21T05:21:31.237Z,4.80
2022-10-21T05:24:03.383Z,4.77
2022-10-21T05:26:35.353Z,4.76
2022-10-21T05:29:07.328Z,4.75
2022-10-21T05:31:39.453Z,4.71
2022-10-21T05:34:11.547Z,4.70
2022-10-21T05:36:43.445Z,4.76
2022-10-21T05:39:15.394Z,4.78
2022-10-21T05:41:48.134Z,4.79
2022-10-21T05:44:20.415Z,4.76
2022-10-21T05:46:52.376Z,4.73
2022-10-21T05:49:24.458Z,4.73
2022-10-21T05:51:56.405Z,4.72
2022-10-21T05:54:28.742Z,4.71
2022-10-21T05:57:02.579Z,4.67
2022-10-21T05:59:34.728Z,4.64
2022-10-21T06:02:06.866Z,4.64
2022-10-21T06:04:38.990Z,4.67
2022-10-21T06:07:11.278Z,4.77
2022-10-21T06:09:43.262Z,4.82
2022-10-21T06:12:15.194Z,4.87
2022-10-21T06:14:47.140Z,4.88
2022-10-21T06:17:19.126Z,4.91
2022-10-21T06:19:51.265Z,4.93
2022-10-21T06:22:23.249Z,4.93
2022-10-21T06:24:55.450Z,4.95
2022-10-21T06:27:27.458Z,4.92
2022-10-21T06:29:59.407Z,4.89
2022-10-21T06:32:31.686Z,4.87
2022-10-21T06:35:03.619Z,4.89
2022-10-21T06:37:36.190Z,4.92
2022-10-21T06:40:11.986Z,5.03
2022-10-21T06:42:43.962Z,5.09
2022-10-21T06:45:16.027Z,5.14
2022-10-21T06:47:47.928Z,5.17
2022-10-21T06:50:20.817Z,5.19
2022-10-21T06:52:52.801Z,5.23
2022-10-21T06:55:25.021Z,5.26
2022-10-21T06:57:57.136Z,5.28
2022-10-21T07:03:05.916Z,5.29
2022-10-21T07:05:37.806Z,5.30
2022-10-21T07:08:12.111Z,5.32
2022-10-21T07:10:46.158Z,5.34
2022-10-21T07:13:20.166Z,5.43
2022-10-21T07:16:02.394Z,5.48
2022-10-21T07:18:36.996Z,5.55
2022-10-21T07:21:14.840Z,5.59
2022-10-21T07:23:51.279Z,5.64
2022-10-21T07:26:24.280Z,5.69
2022-10-21T07:28:58.867Z,5.73
2022-10-21T07:31:33.012Z,5.78
2022-10-21T07:34:06.925Z,5.84
2022-10-21T07:36:41.124Z,5.89
2022-10-21T07:39:15.600Z,5.91
2022-10-21T07:41:49.576Z,5.93
2022-10-21T07:44:23.893Z,5.96
2022-10-21T07:46:56.389Z,6.01
2022-10-21T07:49:28.302Z,6.13
2022-10-21T07:52:02.586Z,6.15
2022-10-21T07:54:34.770Z,6.17
2022-10-21T07:57:06.718Z,6.16
2022-10-21T07:59:39.384Z,6.16
2022-10-21T08:02:14.544Z,6.16
2022-10-21T08:04:46.550Z,6.15
2022-10-21T08:07:18.469Z,6.09
2022-10-21T08:09:50.495Z,6.07
2022-10-21T08:12:22.362Z,6.05
2022-10-21T08:14:54.400Z,6.05
2022-10-21T08:17:26.435Z,6.05
2022-10-21T08:19:58.375Z,6.10
2022-10-21T08:22:30.411Z,6.23
2022-10-21T08:25:02.371Z,6.34
2022-10-21T08:27:34.947Z,6.43
2022-10-21T08:30:08.023Z,6.49
2022-10-21T08:32:40.337Z,6.54
2022-10-21T08:35:14.579Z,6.61
2022-10-21T08:37:49.011Z,6.67
2022-10-21T08:40:21.599Z,6.70
2022-10-21T08:42:53.721Z,6.73
2022-10-21T08:45:36.809Z,6.80
2022-10-21T08:48:15.539Z,6.86
2022-10-21T08:50:51.843Z,6.89
2022-10-21T08:53:28.464Z,6.93
2022-10-21T08:56:07.570Z,6.98
2022-10-21T08:58:39.546Z,7.06
2022-10-21T09:01:24.693Z,7.15
2022-10-21T09:04:04.396Z,7.34
2022-10-21T09:06:49.107Z,7.51
2022-10-21T09:09:27.846Z,7.74
2022-10-21T09:12:10.157Z,7.87
2022-10-21T09:15:01.660Z,7.96
2022-10-21T09:17:57.655Z,8.09
2022-10-21T09:20:42.488Z,8.30
2022-10-21T09:23:38.492Z,8.54
2022-10-21T09:26:26.495Z,8.71
2022-10-21T09:29:02.521Z,8.76
2022-10-21T09:31:34.455Z,8.79
2022-10-21T09:34:16.687Z,8.80
2022-10-21T09:36:50.594Z,8.84
2022-10-21T09:39:29.549Z,8.88
2022-10-21T09:42:07.312Z,8.97
2022-10-21T09:44:46.981Z,9.05
2022-10-21T09:47:24.744Z,9.10
2022-10-21T09:50:09.167Z,9.13
2022-10-21T09:52:43.633Z,9.12
2022-10-21T09:55:17.358Z,9.11
2022-10-21T09:57:57.320Z,9.12
2022-10-21T10:00:48.135Z,9.13
2022-10-21T10:03:39.143Z,9.12
2022-10-21T10:06:11.569Z,9.08
2022-10-21T10:08:47.486Z,9.07
2022-10-21T10:11:22.647Z,9.07
2022-10-21T10:13:53.973Z,9.14
2022-10-21T10:16:30.856Z,9.14
2022-10-21T10:19:18.818Z,9.13
2022-10-21T10:22:10.777Z,9.13
2022-10-21T10:24:43.868Z,9.16
2022-10-21T10:27:23.442Z,9.17
2022-10-21T10:30:00.643Z,9.20
2022-10-21T10:32:36.766Z,9.21
2022-10-21T10:35:18.875Z,9.26
2022-10-21T10:37:51.808Z,9.34
2022-10-21T10:40:27.496Z,9.41
2022-10-21T10:43:07.214Z,9.44
2022-10-21T10:45:39.222Z,9.45
2022-10-21T10:48:24.131Z,9.42
2022-10-21T10:50:58.209Z,9.37
2022-10-21T10:53:33.896Z,9.32
2022-10-21T10:56:19.900Z,9.27
2022-10-21T10:59:04.210Z,9.24
2022-10-21T11:01:40.628Z,9.21
2022-10-21T11:04:22.162Z,9.23
2022-10-21T11:07:02.060Z,9.31
2022-10-21T11:09:35.904Z,9.35
2022-10-21T11:12:12.859Z,9.36
2022-10-21T11:14:55.662Z,9.34
2022-10-21T11:17:33.523Z,9.31
2022-10-21T11:20:14.950Z,9.29
2022-10-21T11:22:55.032Z,9.27
2022-10-21T11:25:35.814Z,9.24
2022-10-21T11:28:21.049Z,9.23
2022-10-21T11:31:01.767Z,9.19
2022-10-21T11:33:44.841Z,9.14
2022-10-21T11:36:28.099Z,9.08
2022-10-21T11:39:31.997Z,9.06
2022-10-21T11:42:15.210Z,9.03
2022-10-21T11:45:01.442Z,8.98
2022-10-21T11:47:43.369Z,8.95
2022-10-21T11:50:25.753Z,8.96
2022-10-21T11:53:14.860Z,8.96
2022-10-21T11:55:54.789Z,8.94
2022-10-21T11:58:39.515Z,8.95
2022-10-21T12:01:25.225Z,8.96
2022-10-21T12:04:30.472Z,8.97
2022-10-21T12:07:23.673Z,8.98
2022-10-21T12:10:00.541Z,8.98
2022-10-21T12:12:36.704Z,8.97
2022-10-21T12:15:19.313Z,8.94
2022-10-21T12:17:52.978Z,8.90
2022-10-21T12:20:28.095Z,8.88
2022-10-21T12:23:03.596Z,8.90
2022-10-21T12:25:42.914Z,8.94
2022-10-21T12:28:22.025Z,8.96
2022-10-21T12:31:00.130Z,8.96
2022-10-21T12:33:44.788Z,8.94
2022-10-21T12:36:37.322Z,8.95
2022-10-21T12:39:17.153Z,8.94
2022-10-21T12:41:49.906Z,8.93
2022-10-21T12:44:25.766Z,8.91
2022-10-21T12:47:02.797Z,8.89
2022-10-21T12:49:36.627Z,8.87
2022-10-21T12:52:15.533Z,8.89
2022-10-21T12:54:57.052Z,8.97
2022-10-21T12:57:32.126Z,9.00
2022-10-21T13:00:39.028Z,9.03
2022-10-21T13:03:13.642Z,9.03
2022-10-21T13:06:07.251Z,9.02
2022-10-21T13:08:54.832Z,9.01
2022-10-21T13:11:41.026Z,9.03
2022-10-21T13:14:35.380Z,9.03
2022-10-21T13:17:31.164Z,9.01
2022-10-21T13:20:38.514Z,9.01
2022-10-21T13:23:32.808Z,9.04
2022-10-21T13:26:24.247Z,9.12
2022-10-21T13:29:19.362Z,9.17
2022-10-21T13:32:28.122Z,9.19
2022-10-21T13:35:09.016Z,9.19
2022-10-21T13:37:43.943Z,9.22
2022-10-21T13:40:17.828Z,9.25
2022-10-21T13:42:58.945Z,9.27
2022-10-21T13:45:34.321Z,9.26
2022-10-21T13:48:13.336Z,9.28
2022-10-21T13:50:47.173Z,9.29
2022-10-21T13:53:30.160Z,9.31
2022-10-21T13:56:05.149Z,9.39
2022-10-21T13:58:40.092Z,9.40
2022-10-21T14:01:14.579Z,9.42
2022-10-21T14:06:31.695Z,9.43
2022-10-21T14:09:08.236Z,9.44
2022-10-21T14:11:48.722Z,9.45
2022-10-21T14:14:25.755Z,9.45
2022-10-21T14:17:00.467Z,9.45
2022-10-21T14:19:37.904Z,9.45
2022-10-21T14:22:15.518Z,9.46
2022-10-21T14:24:50.382Z,9.52
2022-10-21T14:27:25.999Z,9.55
2022-10-21T14:29:59.387Z,9.57
2022-10-21T14:32:31.894Z,9.57
2022-10-21T14:35:17.790Z,9.57
2022-10-21T14:37:53.184Z,9.59
2022-10-21T14:40:31.979Z,9.60
2022-10-21T14:43:09.157Z,9.59
2022-10-21T14:45:49.243Z,9.58
2022-10-21T14:48:30.436Z,9.55
2022-10-21T14:51:06.794Z,9.54
2022-10-21T14:53:45.641Z,9.58
2022-10-21T14:56:21.963Z,9.60
2022-10-21T14:58:59.914Z,9.60
2022-10-21T15:01:32.094Z,9.58
2022-10-21T15:04:04.406Z,9.57
2022-10-21T15:06:36.988Z,9.57
2022-10-21T15:09:23.282Z,9.55
2022-10-21T15:11:55.418Z,9.52
2022-10-21T15:14:33.134Z,9.48
2022-10-21T15:17:11.177Z,9.45
2022-10-21T15:19:49.082Z,9.43
2022-10-21T15:22:28.394Z,9.45
2022-10-21T15:25:07.143Z,9.47
2022-10-21T15:27:44.123Z,9.48
2022-10-21T15:30:21.253Z,9.46
2022-10-21T15:32:55.191Z,9.45
2022-10-21T15:35:27.195Z,9.43
2022-10-21T15:37:59.142Z,9.42
2022-10-21T15:40:34.554Z,9.39
2022-10-21T15:43:06.542Z,9.37
2022-10-21T15:45:41.845Z,9.36
2022-10-21T15:48:18.442Z,9.41
2022-10-21T15:50:50.390Z,9.44
2022-10-21T15:53:22.298Z,9.45
2022-10-21T15:55:54.362Z,9.42
2022-10-21T15:58:26.363Z,9.40
2022-10-21T16:00:58.343Z,9.37
2022-10-21T16:03:30.654Z,9.35
2022-10-21T16:06:02.580Z,9.34
2022-10-21T16:08:34.592Z,9.31
2022-10-21T16:11:07.557Z,9.27
2022-10-21T16:13:39.581Z,9.26
2022-10-21T16:16:21.220Z,9.31
2022-10-21T16:18:54.131Z,9.32
2022-10-21T16:21:26.248Z,9.32
2022-10-21T16:23:58.589Z,9.28
2022-10-21T16:26:33.215Z,9.27
2022-10-21T16:29:05.241Z,9.26
2022-10-21T16:31:37.191Z,9.25
2022-10-21T16:34:09.139Z,9.23
2022-10-21T16:36:41.120Z,9.20
2022-10-21T16:39:17.179Z,9.18
2022-10-21T16:41:49.490Z,9.18
2022-10-21T16:44:21.595Z,9.24
2022-10-21T16:46:55.469Z,9.26
2022-10-21T16:49:29.596Z,9.26
2022-10-21T16:52:02.363Z,9.24
2022-10-21T16:54:35.623Z,9.24
2022-10-21T16:57:08.047Z,9.24
2022-10-21T16:59:40.060Z,9.23
2022-10-21T17:02:17.611Z,9.22
2022-10-21T17:04:49.873Z,9.21
2022-10-21T17:07:22.018Z,9.18
2022-10-21T17:09:53.970Z,9.18
2022-10-21T17:12:26.741Z,9.22
2022-10-21T17:14:58.690Z,9.23
2022-10-21T17:17:31.226Z,9.23
2022-10-21T17:20:03.305Z,9.21
2022-10-21T17:22:35.316Z,9.21
2022-10-21T17:25:08.322Z,9.21
2022-10-21T17:27:40.935Z,9.18
2022-10-21T17:30:14.834Z,9.14
2022-10-21T17:32:46.768Z,9.12
2022-10-21T17:35:19.967Z,9.11
2022-10-21T17:37:53.095Z,9.09
2022-10-21T17:40:27.281Z,9.13
2022-10-21T17:42:59.657Z,9.14
2022-10-21T17:45:31.659Z,9.15
2022-10-21T17:48:03.666Z,9.12
2022-10-21T17:50:36.536Z,9.11
2022-10-21T17:53:08.642Z,9.10
2022-10-21T17:55:40.636Z,9.09
2022-10-21T17:58:12.626Z,9.07
2022-10-21T18:00:46.214Z,9.04
2022-10-21T18:03:18.729Z,9.00
2022-10-21T18:05:50.910Z,8.97
2022-10-21T18:08:22.843Z,9.01
2022-10-21T18:10:56.350Z,9.01
2022-10-21T18:13:31.021Z,9.01
2022-10-21T18:16:06.586Z,9.00
2022-10-21T18:18:39.297Z,8.97
2022-10-21T18:21:14.247Z,8.94
2022-10-21T18:23:45.945Z,8.96
2022-10-21T18:26:20.646Z,8.95
2022-10-21T18:28:54.605Z,8.93
2022-10-21T18:31:30.155Z,8.91
2022-10-21T18:34:05.115Z,8.88
2022-10-21T18:36:35.572Z,8.88
2022-10-21T18:39:08.336Z,8.92
2022-10-21T18:41:40.675Z,8.94
2022-10-21T18:44:15.200Z,8.95
2022-10-21T18:46:49.232Z,8.96
2022-10-21T18:49:23.326Z,8.95
2022-10-21T18:51:55.503Z,8.95
2022-10-21T18:54:27.738Z,8.96
2022-10-21T18:56:59.707Z,8.94
2022-10-21T18:59:31.685Z,8.92
2022-10-21T19:02:04.278Z,8.91
2022-10-21T19:04:36.423Z,8.91
2022-10-21T19:07:08.336Z,8.96
2022-10-21T19:09:40.604Z,8.97
2022-10-21T19:12:16.414Z,8.98
2022-10-21T19:14:50.524Z,8.97
2022-10-21T19:17:22.558Z,8.97
2022-10-21T19:19:54.570Z,8.97
2022-10-21T19:22:26.568Z,8.97
2022-10-21T19:24:58.785Z,8.96
2022-10-21T19:27:30.793Z,8.93
2022-10-21T19:30:03.061Z,8.94
2022-10-21T19:32:35.168Z,8.99
2022-10-21T19:35:07.863Z,9.02
2022-10-21T19:37:39.999Z,9.03
2022-10-21T19:40:14.400Z,9.04
2022-10-21T19:42:46.470Z,9.02
2022-10-21T19:45:18.655Z,8.99
2022-10-21T19:47:50.597Z,8.97
2022-10-21T19:50:22.765Z,8.96
2022-10-21T19:52:54.728Z,8.94
2022-10-21T19:55:26.816Z,8.94
2022-10-21T19:57:58.756Z,8.94
2022-10-21T20:00:30.817Z,8.97
2022-10-21T20:03:02.730Z,8.97
2022-10-21T20:05:37.138Z,8.98
2022-10-21T20:08:09.160Z,8.95
2022-10-21T20:10:41.083Z,8.93
2022-10-21T20:13:13.177Z,8.91
2022-10-21T20:15:50.666Z,8.89
2022-10-21T20:18:26.413Z,8.86
2022-10-21T20:20:59.524Z,8.85
2022-10-21T20:23:31.646Z,8.84
2022-10-21T20:26:04.629Z,8.82
2022-10-21T20:28:37.057Z,8.86
2022-10-21T20:31:11.874Z,8.87
2022-10-21T20:33:45.518Z,8.87
2022-10-21T20:36:19.785Z,8.87
2022-10-21T20:38:54.147Z,8.86
2022-10-21T20:41:28.303Z,8.85
2022-10-21T20:44:00.771Z,8.85
2022-10-21T20:46:35.402Z,8.85
2022-10-21T20:49:08.827Z,8.83
2022-10-21T20:51:43.345Z,8.79
2022-10-21T20:54:17.257Z,8.78
2022-10-21T20:56:49.973Z,8.84
2022-10-21T20:59:21.949Z,8.84
2022-10-21T21:01:54.197Z,8.84
2022-10-21T21:04:26.183Z,8.86
2022-10-21T21:06:58.130Z,8.86
2022-10-21T21:09:57.346Z,8.85
2022-10-21T21:12:22.514Z,8.84
2022-10-21T21:14:54.519Z,8.81
2022-10-21T21:17:26.613Z,8.78
2022-10-21T21:19:58.645Z,8.77
2022-10-21T21:22:30.664Z,8.77
2022-10-21T21:25:02.581Z,8.84
2022-10-21T21:27:34.590Z,8.88
2022-10-21T21:30:09.377Z,8.91
2022-10-21T21:32:41.678Z,8.93
2022-10-21T21:35:14.231Z,8.93
2022-10-21T21:37:46.233Z,8.91
2022-10-21T21:40:18.359Z,8.88
2022-10-21T21:42:50.297Z,8.87
2022-10-21T21:45:22.357Z,8.86
2022-10-21T21:47:54.347Z,8.83
2022-10-21T21:50:26.515Z,8.83
2022-10-21T21:52:58.506Z,8.89
2022-10-21T21:55:30.551Z,8.90
2022-10-21T21:58:02.985Z,8.91
2022-10-21T22:00:36.055Z,8.92
2022-10-21T22:03:08.182Z,8.91
2022-10-21T22:05:40.123Z,8.88
2022-10-21T22:08:12.534Z,8.88
2022-10-21T22:10:45.394Z,8.85
2022-10-21T22:13:17.502Z,8.82
2022-10-21T22:15:49.603Z,8.83
2022-10-21T22:18:21.715Z,8.90
2022-10-21T22:20:53.646Z,8.93
2022-10-21T22:23:25.545Z,8.95
2022-10-21T22:25:58.054Z,8.96
2022-10-21T22:28:30.226Z,8.95
2022-10-21T22:31:03.870Z,8.95
2022-10-21T22:33:36.814Z,8.91
2022-10-21T22:36:11.358Z,8.88
2022-10-21T22:38:43.360Z,8.87
2022-10-21T22:41:15.475Z,8.87
2022-10-21T22:43:47.502Z,8.91
2022-10-21T22:46:33.532Z,8.95
2022-10-21T22:49:07.504Z,8.97
2022-10-21T22:51:39.613Z,8.98
2022-10-21T22:54:29.584Z,9.00
2022-10-21T22:57:04.011Z,9.02
2022-10-21T22:59:37.582Z,9.02
2022-10-21T23:02:09.566Z,9.02
2022-10-21T23:04:41.547Z,9.01
2022-10-21T23:07:13.592Z,9.04
2022-10-21T23:09:45.566Z,9.11
2022-10-21T23:12:17.615Z,9.16
2022-10-21T23:14:49.638Z,9.17
2022-10-21T23:17:21.491Z,9.18
2022-10-21T23:19:53.436Z,9.19
2022-10-21T23:22:25.461Z,9.17
2022-10-21T23:24:57.475Z,9.16
2022-10-21T23:27:29.407Z,9.17
2022-10-21T23:30:01.415Z,9.17
2022-10-21T23:32:33.445Z,9.22
2022-10-21T23:35:06.059Z,9.22
2022-10-21T23:37:38.572Z,9.23
2022-10-21T23:40:13.549Z,9.23
2022-10-21T23:42:45.479Z,9.19
2022-10-21T23:45:17.442Z,9.16
2022-10-21T23:47:49.393Z,9.14
2022-10-21T23:50:21.598Z,9.13
2022-10-21T23:52:53.578Z,9.12
2022-10-21T23:55:25.667Z,9.17
2022-10-21T23:57:57.886Z,9.16
